sensor_id;sensor_type;location;lat;lon;timestamp;pressure;altitude;pressure_sealevel;temperature;humidity
10476;BME280;26166;48.264;11.436;2023-11-18T00:02:35;96895.91;;;11.46;56.12
10476;BME280;26166;48.264;11.436;2023-11-18T00:05:35;96905.63;;;11.45;56.37
10476;BME280;26166;48.264;11.436;2023-11-18T00:08:36;96913.00;;;11.42;56.34
10476;BME280;26166;48.264;11.436;2023-11-18T00:11:36;96903.75;;;11.37;56.26
10476;BME280;26166;48.264;11.436;2023-11-18T00:14:36;96902.94;;;11.37;56.29
10476;BME280;26166;48.264;11.436;2023-11-18T00:17:37;96897.69;;;11.37;56.20
10476;BME280;26166;48.264;11.436;2023-11-18T00:20:37;96897.69;;;11.37;56.13
10476;BME280;26166;48.264;11.436;2023-11-18T00:23:37;96904.75;;;11.36;56.20
10476;BME280;26166;48.264;11.436;2023-11-18T00:26:38;96912.81;;;11.35;56.04
10476;BME280;26166;48.264;11.436;2023-11-18T00:29:38;96919.53;;;11.37;56.01
10476;BME280;26166;48.264;11.436;2023-11-18T00:32:38;96915.25;;;11.36;55.98
10476;BME280;26166;48.264;11.436;2023-11-18T00:35:39;96920.53;;;11.36;56.19
10476;BME280;26166;48.264;11.436;2023-11-18T00:38:39;96923.97;;;11.37;55.82
10476;BME280;26166;48.264;11.436;2023-11-18T00:41:39;96919.53;;;11.37;56.15
10476;BME280;26166;48.264;11.436;2023-11-18T00:44:39;96923.84;;;11.39;55.95
10476;BME280;26166;48.264;11.436;2023-11-18T00:47:40;96918.59;;;11.39;55.97
10476;BME280;26166;48.264;11.436;2023-11-18T00:50:43;96922.34;;;11.36;56.18
10476;BME280;26166;48.264;11.436;2023-11-18T00:53:43;96912.97;;;11.33;56.21
10476;BME280;26166;48.264;11.436;2023-11-18T00:56:44;96919.34;;;11.31;56.08
10476;BME280;26166;48.264;11.436;2023-11-18T00:59:44;96918.53;;;11.30;55.89
10476;BME280;26166;48.264;11.436;2023-11-18T01:02:46;96921.16;;;11.30;56.14
10476;BME280;26166;48.264;11.436;2023-11-18T01:05:48;96925.13;;;11.34;55.96
10476;BME280;26166;48.264;11.436;2023-11-18T01:08:48;96919.19;;;11.32;55.81
10476;BME280;26166;48.264;11.436;2023-11-18T01:11:49;96927.06;;;11.32;56.01
10476;BME280;26166;48.264;11.436;2023-11-18T01:14:49;96927.41;;;11.29;55.76
10476;BME280;26166;48.264;11.436;2023-11-18T01:17:49;96927.06;;;11.32;56.11
10476;BME280;26166;48.264;11.436;2023-11-18T01:20:49;96929.41;;;11.35;55.73
10476;BME280;26166;48.264;11.436;2023-11-18T01:23:50;96928.59;;;11.35;56.17
10476;BME280;26166;48.264;11.436;2023-11-18T01:26:50;96928.41;;;11.36;55.94
10476;BME280;26166;48.264;11.436;2023-11-18T01:29:50;96940.59;;;11.37;56.01
10476;BME280;26166;48.264;11.436;2023-11-18T01:32:51;96929.75;;;11.41;55.69
10476;BME280;26166;48.264;11.436;2023-11-18T01:35:51;96932.41;;;11.41;55.80
10476;BME280;26166;48.264;11.436;2023-11-18T01:38:51;96928.94;;;11.40;55.88
10476;BME280;26166;48.264;11.436;2023-11-18T01:41:51;96940.44;;;11.39;55.87
10476;BME280;26166;48.264;11.436;2023-11-18T01:44:51;96937.81;;;11.39;55.62
10476;BME280;26166;48.264;11.436;2023-11-18T01:47:52;96937.94;;;11.37;55.98
10476;BME280;26166;48.264;11.436;2023-11-18T01:50:53;96940.59;;;11.37;56.08
10476;BME280;26166;48.264;11.436;2023-11-18T01:53:56;96950.16;;;11.39;55.70
10476;BME280;26166;48.264;11.436;2023-11-18T01:56:59;96943.59;;;11.43;55.66
10476;BME280;26166;48.264;11.436;2023-11-18T02:00:02;96947.88;;;11.44;55.47
10476;BME280;26166;48.264;11.436;2023-11-18T02:03:06;96952.44;;;11.42;55.45
10476;BME280;26166;48.264;11.436;2023-11-18T02:06:06;96958.56;;;11.42;55.32
10476;BME280;26166;48.264;11.436;2023-11-18T02:09:06;96956.06;;;11.41;55.67
10476;BME280;26166;48.264;11.436;2023-11-18T02:15:09;96953.31;;;11.42;55.59
10476;BME280;26166;48.264;11.436;2023-11-18T02:18:12;96957.06;;;11.40;55.50
10476;BME280;26166;48.264;11.436;2023-11-18T02:21:13;96954.72;;;11.36;55.58
10476;BME280;26166;48.264;11.436;2023-11-18T02:24:27;96950.28;;;11.37;55.65
10476;BME280;26166;48.264;11.436;2023-11-18T02:27:27;96958.03;;;11.39;55.24
10476;BME280;26166;48.264;11.436;2023-11-18T02:30:28;96957.06;;;11.40;55.17
10476;BME280;26166;48.264;11.436;2023-11-18T02:33:35;96955.06;;;11.42;55.50
10476;BME280;26166;48.264;11.436;2023-11-18T02:36:41;96956.75;;;11.43;55.46
10476;BME280;26166;48.264;11.436;2023-11-18T02:39:45;96960.88;;;11.45;55.53
10476;BME280;26166;48.264;11.436;2023-11-18T02:42:50;96966.28;;;11.44;55.08
10476;BME280;26166;48.264;11.436;2023-11-18T02:45:53;96964.31;;;11.46;55.34
10476;BME280;26166;48.264;11.436;2023-11-18T02:48:54;96958.22;;;11.45;55.47
10476;BME280;26166;48.264;11.436;2023-11-18T02:51:55;96954.13;;;11.43;55.51
10476;BME280;26166;48.264;11.436;2023-11-18T02:54:55;96950.50;;;11.44;55.56
10476;BME280;26166;48.264;11.436;2023-11-18T02:57:56;96948.53;;;11.46;55.53
10476;BME280;26166;48.264;11.436;2023-11-18T03:00:56;96958.41;;;11.44;55.30
10476;BME280;26166;48.264;11.436;2023-11-18T03:04:00;96960.22;;;11.43;55.58
10476;BME280;26166;48.264;11.436;2023-11-18T03:07:00;96959.38;;;11.43;55.21
10476;BME280;26166;48.264;11.436;2023-11-18T03:10:00;96961.84;;;11.44;55.47
10476;BME280;26166;48.264;11.436;2023-11-18T03:13:01;96969.75;;;11.44;55.55
10476;BME280;26166;48.264;11.436;2023-11-18T03:16:01;96971.38;;;11.45;55.52
10476;BME280;26166;48.264;11.436;2023-11-18T03:19:02;96967.94;;;11.45;55.27
10476;BME280;26166;48.264;11.436;2023-11-18T03:22:04;96968.75;;;11.45;55.37
10476;BME280;26166;48.264;11.436;2023-11-18T03:25:05;96968.75;;;11.45;55.24
10476;BME280;26166;48.264;11.436;2023-11-18T03:28:05;96970.72;;;11.43;55.23
10476;BME280;26166;48.264;11.436;2023-11-18T03:31:06;96971.84;;;11.41;55.43
10476;BME280;26166;48.264;11.436;2023-11-18T03:34:06;96976.47;;;11.39;55.52
10476;BME280;26166;48.264;11.436;2023-11-18T03:37:07;96984.66;;;11.35;55.65
10476;BME280;26166;48.264;11.436;2023-11-18T03:40:07;96981.84;;;11.37;55.19
10476;BME280;26166;48.264;11.436;2023-11-18T03:43:08;97000.13;;;11.39;55.48
10476;BME280;26166;48.264;11.436;2023-11-18T03:46:10;97006.75;;;11.43;55.33
10476;BME280;26166;48.264;11.436;2023-11-18T03:49:11;97008.38;;;11.44;55.28
10476;BME280;26166;48.264;11.436;2023-11-18T03:52:11;97019.19;;;11.41;55.35
10476;BME280;26166;48.264;11.436;2023-11-18T03:55:12;97017.56;;;11.40;55.26
10476;BME280;26166;48.264;11.436;2023-11-18T03:58:12;97019.38;;;11.39;55.32
10476;BME280;26166;48.264;11.436;2023-11-18T04:01:19;97028.06;;;11.40;55.34
10476;BME280;26166;48.264;11.436;2023-11-18T04:04:19;97030.53;;;11.41;55.46
10476;BME280;26166;48.264;11.436;2023-11-18T04:07:19;97029.72;;;11.41;55.65
10476;BME280;26166;48.264;11.436;2023-11-18T04:10:20;97024.16;;;11.44;55.11
10476;BME280;26166;48.264;11.436;2023-11-18T04:13:21;97016.09;;;11.45;55.44
10476;BME280;26166;48.264;11.436;2023-11-18T04:16:21;97018.59;;;11.47;55.23
10476;BME280;26166;48.264;11.436;2023-11-18T04:19:21;97015.97;;;11.47;55.18
10476;BME280;26166;48.264;11.436;2023-11-18T04:22:22;97011.38;;;11.49;55.44
10476;BME280;26166;48.264;11.436;2023-11-18T04:25:22;97009.41;;;11.51;55.39
10476;BME280;26166;48.264;11.436;2023-11-18T04:28:22;97002.34;;;11.51;55.05
10476;BME280;26166;48.264;11.436;2023-11-18T04:31:22;96998.22;;;11.49;54.98
10476;BME280;26166;48.264;11.436;2023-11-18T04:34:23;96998.88;;;11.51;55.32
10476;BME280;26166;48.264;11.436;2023-11-18T04:37:25;97008.44;;;11.52;55.05
10476;BME280;26166;48.264;11.436;2023-11-18T04:40:25;96998.56;;;11.54;55.28
10476;BME280;26166;48.264;11.436;2023-11-18T04:43:25;96995.13;;;11.53;54.86
10476;BME280;26166;48.264;11.436;2023-11-18T04:46:25;96994.81;;;11.56;54.76
10476;BME280;26166;48.264;11.436;2023-11-18T04:49:25;96995.81;;;11.55;54.81
10476;BME280;26166;48.264;11.436;2023-11-18T04:52:26;96991.38;;;11.56;55.05
10476;BME280;26166;48.264;11.436;2023-11-18T04:55:26;96995.66;;;11.57;54.98
10476;BME280;26166;48.264;11.436;2023-11-18T04:58:27;96998.28;;;11.57;54.83
10476;BME280;26166;48.264;11.436;2023-11-18T05:01:27;96999.25;;;11.56;55.17
10476;BME280;26166;48.264;11.436;2023-11-18T05:04:27;97002.84;;;11.55;54.81
10476;BME280;26166;48.264;11.436;2023-11-18T05:07:27;97007.16;;;11.56;54.80
10476;BME280;26166;48.264;11.436;2023-11-18T05:10:28;97012.41;;;11.56;55.02
10476;BME280;26166;48.264;11.436;2023-11-18T05:13:28;97007.97;;;11.56;54.98
10476;BME280;26166;48.264;11.436;2023-11-18T05:16:29;97007.16;;;11.56;55.00
10476;BME280;26166;48.264;11.436;2023-11-18T05:19:30;96994.97;;;11.55;54.93
10476;BME280;26166;48.264;11.436;2023-11-18T05:22:30;96985.28;;;11.55;55.22
10476;BME280;26166;48.264;11.436;2023-11-18T05:25:31;96987.75;;;11.57;55.15
10476;BME280;26166;48.264;11.436;2023-11-18T05:28:33;96985.13;;;11.57;55.05
10476;BME280;26166;48.264;11.436;2023-11-18T05:31:33;96978.56;;;11.61;54.90
10476;BME280;26166;48.264;11.436;2023-11-18T05:34:33;96991.72;;;11.61;54.74
10476;BME280;26166;48.264;11.436;2023-11-18T05:37:35;96992.72;;;11.60;54.96
10476;BME280;26166;48.264;11.436;2023-11-18T05:40:37;96994.50;;;11.59;54.84
10476;BME280;26166;48.264;11.436;2023-11-18T05:43:42;96991.03;;;11.59;54.59
10476;BME280;26166;48.264;11.436;2023-11-18T05:46:51;96990.09;;;11.60;54.79
10476;BME280;26166;48.264;11.436;2023-11-18T05:49:52;96993.66;;;11.59;54.69
10476;BME280;26166;48.264;11.436;2023-11-18T05:52:52;96992.72;;;11.60;54.88
10476;BME280;26166;48.264;11.436;2023-11-18T05:55:53;97002.09;;;11.62;54.90
10476;BME280;26166;48.264;11.436;2023-11-18T05:58:53;97009.31;;;11.60;54.89
10476;BME280;26166;48.264;11.436;2023-11-18T06:01:53;97021.66;;;11.60;54.95
10476;BME280;26166;48.264;11.436;2023-11-18T06:04:53;97028.69;;;11.59;54.74
10476;BME280;26166;48.264;11.436;2023-11-18T06:07:54;97034.81;;;11.60;54.87
10476;BME280;26166;48.264;11.436;2023-11-18T06:10:54;97035.13;;;11.57;54.48
10476;BME280;26166;48.264;11.436;2023-11-18T06:13:56;97046.75;;;11.54;54.98
10476;BME280;26166;48.264;11.436;2023-11-18T06:16:56;97045.41;;;11.50;54.94
10476;BME280;26166;48.264;11.436;2023-11-18T06:19:56;97039.66;;;11.47;55.16
10476;BME280;26166;48.264;11.436;2023-11-18T06:22:57;97041.44;;;11.46;54.86
10476;BME280;26166;48.264;11.436;2023-11-18T06:25:57;97038.59;;;11.40;55.26
10476;BME280;26166;48.264;11.436;2023-11-18T06:29:00;97043.16;;;11.37;55.46
10476;BME280;26166;48.264;11.436;2023-11-18T06:32:00;97037.09;;;11.37;55.67
10476;BME280;26166;48.264;11.436;2023-11-18T06:35:00;97041.88;;;11.42;55.56
10476;BME280;26166;48.264;11.436;2023-11-18T06:38:01;97027.63;;;11.44;55.51
10476;BME280;26166;48.264;11.436;2023-11-18T06:41:02;97033.53;;;11.46;55.64
10476;BME280;26166;48.264;11.436;2023-11-18T06:44:05;97034.06;;;11.50;55.70
10476;BME280;26166;48.264;11.436;2023-11-18T06:47:13;97039.84;;;11.53;55.59
10476;BME280;26166;48.264;11.436;2023-11-18T06:50:13;97030.84;;;11.56;55.27
10476;BME280;26166;48.264;11.436;2023-11-18T06:53:14;97026.22;;;11.58;55.34
10476;BME280;26166;48.264;11.436;2023-11-18T06:56:15;97038.41;;;11.59;55.33
10476;BME280;26166;48.264;11.436;2023-11-18T06:59:16;97042.72;;;11.60;54.98
10476;BME280;26166;48.264;11.436;2023-11-18T07:02:16;97041.72;;;11.61;55.44
10476;BME280;26166;48.264;11.436;2023-11-18T07:05:17;97038.09;;;11.62;55.22
10476;BME280;26166;48.264;11.436;2023-11-18T07:08:18;97039.09;;;11.61;55.30
10476;BME280;26166;48.264;11.436;2023-11-18T07:11:18;97036.47;;;11.61;55.07
10476;BME280;26166;48.264;11.436;2023-11-18T07:14:19;97046.16;;;11.60;55.41
10476;BME280;26166;48.264;11.436;2023-11-18T07:17:19;97042.72;;;11.60;55.40
10476;BME280;26166;48.264;11.436;2023-11-18T07:20:19;97050.59;;;11.60;55.48
10476;BME280;26166;48.264;11.436;2023-11-18T07:23:19;97051.44;;;11.60;55.45
10476;BME280;26166;48.264;11.436;2023-11-18T07:26:19;97050.75;;;11.58;55.56
10476;BME280;26166;48.264;11.436;2023-11-18T07:29:19;97050.91;;;11.57;55.36
10476;BME280;26166;48.264;11.436;2023-11-18T07:32:20;97057.00;;;11.57;55.42
10476;BME280;26166;48.264;11.436;2023-11-18T07:35:20;97060.75;;;11.55;55.38
10476;BME280;26166;48.264;11.436;2023-11-18T07:38:20;97056.47;;;11.54;55.38
10476;BME280;26166;48.264;11.436;2023-11-18T07:41:20;97065.34;;;11.53;54.99
10476;BME280;26166;48.264;11.436;2023-11-18T07:44:23;97068.13;;;11.51;55.42
10476;BME280;26166;48.264;11.436;2023-11-18T07:47:25;97068.13;;;11.51;55.40
10476;BME280;26166;48.264;11.436;2023-11-18T07:50:26;97066.31;;;11.52;55.20
10476;BME280;26166;48.264;11.436;2023-11-18T07:53:26;97073.22;;;11.53;55.52
10476;BME280;26166;48.264;11.436;2023-11-18T07:56:29;97063.69;;;11.52;55.43
10476;BME280;26166;48.264;11.436;2023-11-18T07:59:29;97055.47;;;11.55;55.35
10476;BME280;26166;48.264;11.436;2023-11-18T08:02:29;97069.16;;;11.58;55.14
10476;BME280;26166;48.264;11.436;2023-11-18T08:05:29;97065.41;;;11.61;55.40
10476;BME280;26166;48.264;11.436;2023-11-18T08:08:31;97078.22;;;11.64;55.44
10476;BME280;26166;48.264;11.436;2023-11-18T08:11:31;97074.78;;;11.63;55.24
10476;BME280;26166;48.264;11.436;2023-11-18T08:14:33;97066.06;;;11.63;55.54
10476;BME280;26166;48.264;11.436;2023-11-18T08:17:33;97071.31;;;11.63;55.42
10476;BME280;26166;48.264;11.436;2023-11-18T08:20:33;97069.03;;;11.60;55.37
10476;BME280;26166;48.264;11.436;2023-11-18T08:23:34;97067.22;;;11.60;55.54
10476;BME280;26166;48.264;11.436;2023-11-18T08:26:35;97067.34;;;11.59;55.38
10476;BME280;26166;48.264;11.436;2023-11-18T08:29:35;97084.41;;;11.55;55.70
10476;BME280;26166;48.264;11.436;2023-11-18T08:32:35;97090.81;;;11.52;55.95
10476;BME280;26166;48.264;11.436;2023-11-18T08:35:36;97091.13;;;11.49;55.86
10476;BME280;26166;48.264;11.436;2023-11-18T08:38:36;97094.44;;;11.51;55.97
10476;BME280;26166;48.264;11.436;2023-11-18T08:41:37;97087.22;;;11.53;55.71
10476;BME280;26166;48.264;11.436;2023-11-18T08:44:38;97081.94;;;11.53;56.00
10476;BME280;26166;48.264;11.436;2023-11-18T08:47:42;97082.78;;;11.54;55.83
10476;BME280;26166;48.264;11.436;2023-11-18T08:50:42;97067.97;;;11.53;55.73
10476;BME280;26166;48.264;11.436;2023-11-18T08:53:43;97060.69;;;11.47;56.12
10476;BME280;26166;48.264;11.436;2023-11-18T08:56:43;97065.44;;;11.43;56.51
10476;BME280;26166;48.264;11.436;2023-11-18T08:59:44;97067.25;;;11.43;56.55
10476;BME280;26166;48.264;11.436;2023-11-18T09:02:44;97061.16;;;11.42;56.55
10476;BME280;26166;48.264;11.436;2023-11-18T09:05:45;97056.56;;;11.44;56.38
10476;BME280;26166;48.264;11.436;2023-11-18T09:08:56;97050.47;;;11.44;56.55
10476;BME280;26166;48.264;11.436;2023-11-18T09:11:57;97054.75;;;11.45;56.36
10476;BME280;26166;48.264;11.436;2023-11-18T09:14:57;97044.91;;;11.47;56.26
10476;BME280;26166;48.264;11.436;2023-11-18T09:17:58;97056.38;;;11.46;56.32
10476;BME280;26166;48.264;11.436;2023-11-18T09:20:59;97059.03;;;11.46;56.03
10476;BME280;26166;48.264;11.436;2023-11-18T09:24:01;97064.28;;;11.46;56.50
10476;BME280;26166;48.264;11.436;2023-11-18T09:27:05;97062.63;;;11.45;56.72
10476;BME280;26166;48.264;11.436;2023-11-18T09:30:06;97058.06;;;11.47;56.59
10476;BME280;26166;48.264;11.436;2023-11-18T09:33:13;97055.28;;;11.48;56.59
10476;BME280;26166;48.264;11.436;2023-11-18T09:36:14;97068.97;;;11.52;56.66
10476;BME280;26166;48.264;11.436;2023-11-18T09:39:14;97068.13;;;11.51;56.46
10476;BME280;26166;48.264;11.436;2023-11-18T09:42:29;97061.53;;;11.47;56.34
10476;BME280;26166;48.264;11.436;2023-11-18T09:45:29;97059.34;;;11.43;56.64
10476;BME280;26166;48.264;11.436;2023-11-18T09:48:31;97058.66;;;11.41;56.67
10476;BME280;26166;48.264;11.436;2023-11-18T09:51:41;97061.28;;;11.41;56.92
10476;BME280;26166;48.264;11.436;2023-11-18T09:57:47;97065.56;;;11.42;56.62
10476;BME280;26166;48.264;11.436;2023-11-18T10:00:57;97067.06;;;11.44;56.76
10476;BME280;26166;48.264;11.436;2023-11-18T10:03:58;97072.03;;;11.47;57.37
10476;BME280;26166;48.264;11.436;2023-11-18T10:07:00;97062.19;;;11.49;56.80
10476;BME280;26166;48.264;11.436;2023-11-18T10:10:02;97055.81;;;11.52;56.91
10476;BME280;26166;48.264;11.436;2023-11-18T10:13:03;97050.06;;;11.56;57.01
10476;BME280;26166;48.264;11.436;2023-11-18T10:16:08;97049.09;;;11.57;56.77
10476;BME280;26166;48.264;11.436;2023-11-18T10:19:08;97034.94;;;11.58;57.12
10476;BME280;26166;48.264;11.436;2023-11-18T10:22:16;97020.97;;;11.58;56.65
10476;BME280;26166;48.264;11.436;2023-11-18T10:25:23;97022.63;;;11.59;56.43
10476;BME280;26166;48.264;11.436;2023-11-18T10:31:24;97026.47;;;11.65;56.01
10476;BME280;26166;48.264;11.436;2023-11-18T10:34:24;97015.59;;;11.68;55.96
10476;BME280;26166;48.264;11.436;2023-11-18T10:37:28;97009.50;;;11.67;56.17
10476;BME280;26166;48.264;11.436;2023-11-18T10:40:33;97019.06;;;11.68;55.68
10476;BME280;26166;48.264;11.436;2023-11-18T10:43:37;97014.13;;;11.65;56.38
10476;BME280;26166;48.264;11.436;2023-11-18T10:46:39;97026.00;;;11.69;55.75
10476;BME280;26166;48.264;11.436;2023-11-18T10:49:41;97040.09;;;11.68;55.56
10476;BME280;26166;48.264;11.436;2023-11-18T10:52:42;97028.47;;;11.71;55.49
10476;BME280;26166;48.264;11.436;2023-11-18T10:55:42;97023.19;;;11.71;55.49
10476;BME280;26166;48.264;11.436;2023-11-18T10:58:43;97025.81;;;11.71;55.50
10476;BME280;26166;48.264;11.436;2023-11-18T11:01:46;97029.44;;;11.70;55.10
10476;BME280;26166;48.264;11.436;2023-11-18T11:04:48;97028.63;;;11.69;54.82
10476;BME280;26166;48.264;11.436;2023-11-18T11:07:49;97025.31;;;11.67;54.59
10476;BME280;26166;48.264;11.436;2023-11-18T11:10:49;97020.03;;;11.67;54.68
10476;BME280;26166;48.264;11.436;2023-11-18T11:13:57;97022.84;;;11.66;54.83
10476;BME280;26166;48.264;11.436;2023-11-18T11:16:57;97031.84;;;11.63;54.49
10476;BME280;26166;48.264;11.436;2023-11-18T11:20:03;97027.41;;;11.63;54.59
10476;BME280;26166;48.264;11.436;2023-11-18T11:23:24;97027.94;;;11.67;54.77
10476;BME280;26166;48.264;11.436;2023-11-18T11:29:45;97029.44;;;11.70;54.18
10476;BME280;26166;48.264;11.436;2023-11-18T11:36:12;97053.66;;;11.73;54.24
10476;BME280;26166;48.264;11.436;2023-11-18T11:39:16;97035.22;;;11.73;54.04
10476;BME280;26166;48.264;11.436;2023-11-18T11:42:17;97022.91;;;11.74;54.10
10476;BME280;26166;48.264;11.436;2023-11-18T11:45:21;97034.91;;;11.76;53.89
10476;BME280;26166;48.264;11.436;2023-11-18T11:48:23;97024.53;;;11.75;52.94
10476;BME280;26166;48.264;11.436;2023-11-18T11:51:32;97021.09;;;11.74;53.18
10476;BME280;26166;48.264;11.436;2023-11-18T11:54:45;97018.44;;;11.74;53.48
10476;BME280;26166;48.264;11.436;2023-11-18T11:57:50;97015.81;;;11.74;52.93
10476;BME280;26166;48.264;11.436;2023-11-18T12:00:53;97006.94;;;11.75;53.00
10476;BME280;26166;48.264;11.436;2023-11-18T12:03:54;97006.63;;;11.78;53.30
10476;BME280;26166;48.264;11.436;2023-11-18T12:06:57;96998.56;;;11.80;53.27
10476;BME280;26166;48.264;11.436;2023-11-18T12:09:59;96995.66;;;11.83;53.25
10476;BME280;26166;48.264;11.436;2023-11-18T12:13:07;96988.59;;;11.83;53.13
10476;BME280;26166;48.264;11.436;2023-11-18T12:16:07;96992.69;;;11.86;53.06
10476;BME280;26166;48.264;11.436;2023-11-18T12:19:29;96993.56;;;11.86;53.30
10476;BME280;26166;48.264;11.436;2023-11-18T12:23:02;96994.88;;;11.91;53.39
10476;BME280;26166;48.264;11.436;2023-11-18T12:25:53;96985.19;;;11.91;53.12
10476;BME280;26166;48.264;11.436;2023-11-18T12:28:57;96977.13;;;11.93;53.45
10476;BME280;26166;48.264;11.436;2023-11-18T12:31:58;96973.66;;;11.92;53.33
10476;BME280;26166;48.264;11.436;2023-11-18T12:34:59;96962.97;;;11.94;53.24
10476;BME280;26166;48.264;11.436;2023-11-18T12:41:08;96957.41;;;11.97;53.28
10476;BME280;26166;48.264;11.436;2023-11-18T12:44:30;96954.75;;;11.97;52.96
10476;BME280;26166;48.264;11.436;2023-11-18T12:47:35;96945.34;;;11.94;52.63
10476;BME280;26166;48.264;11.436;2023-11-18T12:50:41;96944.53;;;11.94;52.76
10476;BME280;26166;48.264;11.436;2023-11-18T12:53:43;96936.81;;;11.92;52.59
10476;BME280;26166;48.264;11.436;2023-11-18T12:56:44;96936.94;;;11.91;52.54
10476;BME280;26166;48.264;11.436;2023-11-18T12:59:48;96944.72;;;11.92;52.70
10476;BME280;26166;48.264;11.436;2023-11-18T13:02:49;96947.16;;;11.94;52.46
10476;BME280;26166;48.264;11.436;2023-11-18T13:05:50;96931.53;;;11.92;52.57
10476;BME280;26166;48.264;11.436;2023-11-18T13:08:52;96926.41;;;11.91;52.34
10476;BME280;26166;48.264;11.436;2023-11-18T13:11:52;96924.63;;;11.91;52.49
10476;BME280;26166;48.264;11.436;2023-11-18T13:14:56;96915.88;;;11.91;52.59
10476;BME280;26166;48.264;11.436;2023-11-18T13:17:58;96915.88;;;11.91;52.68
10476;BME280;26166;48.264;11.436;2023-11-18T13:20:58;96918.38;;;11.92;52.73
10476;BME280;26166;48.264;11.436;2023-11-18T13:23:59;96907.03;;;11.92;52.63
10476;BME280;26166;48.264;11.436;2023-11-18T13:26:59;96900.94;;;11.91;52.63
10476;BME280;26166;48.264;11.436;2023-11-18T13:30:07;96903.56;;;11.91;52.84
10476;BME280;26166;48.264;11.436;2023-11-18T13:33:12;96899.13;;;11.92;52.54
10476;BME280;26166;48.264;11.436;2023-11-18T13:36:12;96904.22;;;11.93;52.54
10476;BME280;26166;48.264;11.436;2023-11-18T13:39:20;96906.69;;;11.95;52.32
10476;BME280;26166;48.264;11.436;2023-11-18T13:42:23;96890.25;;;11.93;52.37
10476;BME280;26166;48.264;11.436;2023-11-18T13:45:24;96889.56;;;11.91;52.06
10476;BME280;26166;48.264;11.436;2023-11-18T13:48:24;96890.56;;;11.90;51.93
10476;BME280;26166;48.264;11.436;2023-11-18T13:51:25;96896.50;;;11.92;52.10
10476;BME280;26166;48.264;11.436;2023-11-18T13:54:28;96899.78;;;11.94;51.76
10476;BME280;26166;48.264;11.436;2023-11-18T13:57:29;96898.97;;;11.93;51.40
10476;BME280;26166;48.264;11.436;2023-11-18T14:00:29;96902.59;;;11.92;51.49
10476;BME280;26166;48.264;11.436;2023-11-18T14:03:30;96889.56;;;11.91;51.70
10476;BME280;26166;48.264;11.436;2023-11-18T14:06:31;96887.91;;;11.90;51.51
10476;BME280;26166;48.264;11.436;2023-11-18T14:09:32;96882.16;;;11.86;51.29
10476;BME280;26166;48.264;11.436;2023-11-18T14:12:36;96879.19;;;11.89;51.13
10476;BME280;26166;48.264;11.436;2023-11-18T14:15:36;96884.63;;;11.88;51.56
10476;BME280;26166;48.264;11.436;2023-11-18T14:18:36;96882.66;;;11.90;51.13
10476;BME280;26166;48.264;11.436;2023-11-18T14:21:36;96889.56;;;11.91;51.12
10476;BME280;26166;48.264;11.436;2023-11-18T14:24:37;96877.38;;;11.90;51.31
10476;BME280;26166;48.264;11.436;2023-11-18T14:27:38;96875.75;;;11.89;51.33
10476;BME280;26166;48.264;11.436;2023-11-18T14:30:38;96870.47;;;11.89;51.43
10476;BME280;26166;48.264;11.436;2023-11-18T14:33:38;96870.31;;;11.90;51.33
10476;BME280;26166;48.264;11.436;2023-11-18T14:36:39;96859.66;;;11.92;51.07
10476;BME280;26166;48.264;11.436;2023-11-18T14:39:40;96860.59;;;11.91;51.30
10476;BME280;26166;48.264;11.436;2023-11-18T14:42:41;96857.00;;;11.92;51.13
10476;BME280;26166;48.264;11.436;2023-11-18T14:45:41;96864.91;;;11.92;51.06
10476;BME280;26166;48.264;11.436;2023-11-18T14:48:41;96876.25;;;11.92;51.31
10476;BME280;26166;48.264;11.436;2023-11-18T14:51:42;96878.56;;;11.95;50.95
10476;BME280;26166;48.264;11.436;2023-11-18T14:54:43;96863.59;;;11.96;51.28
10476;BME280;26166;48.264;11.436;2023-11-18T14:57:44;96857.34;;;11.97;51.55
10476;BME280;26166;48.264;11.436;2023-11-18T15:00:44;96841.69;;;11.95;51.85
10476;BME280;26166;48.264;11.436;2023-11-18T15:03:47;96833.97;;;11.94;51.63
10476;BME280;26166;48.264;11.436;2023-11-18T15:06:47;96842.69;;;11.94;51.85
10476;BME280;26166;48.264;11.436;2023-11-18T15:09:49;96839.91;;;11.96;52.09
10476;BME280;26166;48.264;11.436;2023-11-18T15:12:51;96841.69;;;11.95;52.11
10476;BME280;26166;48.264;11.436;2023-11-18T15:15:54;96831.03;;;11.97;51.84
10476;BME280;26166;48.264;11.436;2023-11-18T15:18:55;96818.84;;;11.96;52.06
10476;BME280;26166;48.264;11.436;2023-11-18T15:21:56;96805.69;;;11.96;52.27
10476;BME280;26166;48.264;11.436;2023-11-18T15:24:56;96797.09;;;11.94;52.62
10476;BME280;26166;48.264;11.436;2023-11-18T15:27:59;96799.75;;;11.94;52.66
10476;BME280;26166;48.264;11.436;2023-11-18T15:31:00;96795.47;;;11.93;52.44
10476;BME280;26166;48.264;11.436;2023-11-18T15:34:03;96798.91;;;11.93;52.60
10476;BME280;26166;48.264;11.436;2023-11-18T15:37:03;96792.16;;;11.91;52.82
10476;BME280;26166;48.264;11.436;2023-11-18T15:40:07;96784.25;;;11.91;53.01
10476;BME280;26166;48.264;11.436;2023-11-18T15:43:11;96768.47;;;11.91;52.98
10476;BME280;26166;48.264;11.436;2023-11-18T15:46:12;96769.31;;;11.91;52.76
10476;BME280;26166;48.264;11.436;2023-11-18T15:49:12;96765.69;;;11.92;52.81
10476;BME280;26166;48.264;11.436;2023-11-18T15:52:12;96780.50;;;11.93;52.78
10476;BME280;26166;48.264;11.436;2023-11-18T15:55:15;96784.94;;;11.93;52.76
10476;BME280;26166;48.264;11.436;2023-11-18T15:58:15;96781.47;;;11.92;52.84
10476;BME280;26166;48.264;11.436;2023-11-18T16:01:18;96789.38;;;11.92;52.70
10476;BME280;26166;48.264;11.436;2023-11-18T16:04:18;96794.47;;;11.94;52.77
10476;BME280;26166;48.264;11.436;2023-11-18T16:07:19;96791.03;;;11.93;52.58
10476;BME280;26166;48.264;11.436;2023-11-18T16:10:20;96806.66;;;11.95;53.03